Time;durP1;ratioP1;P1;durP2;ratioP2;P2;SDS_P1;SDS_P2;PMS_P1;PMS_P2;Temp;Humidity;BMP_temperature;BMP_pressure;BME280_temperature;BME280_humidity;BME280_pressure;Samples;Min_cycle;Max_cycle;Signal;HPM_P1;HPM_P2
2023/11/07 00:01:48;;;;;;;6.47;1.65;;;7.90;99.90;;;;;;4983438;28;20310;-83
2023/11/07 00:04:16;;;;;;;1.73;1.63;;;7.80;99.90;;;;;;4982626;28;20440;-82
2023/11/07 00:06:44;;;;;;;0.70;0.70;;;7.70;99.90;;;;;;4984349;28;20373;-82
2023/11/07 00:09:12;;;;;;;2.05;1.15;;;7.60;99.90;;;;;;4984873;28;20270;-81
2023/11/07 00:11:42;;;;;;;0.60;0.60;;;7.70;99.90;;;;;;4984471;28;20210;-81
2023/11/07 00:14:10;;;;;;;0.63;0.63;;;7.60;99.90;;;;;;4983769;28;20215;-81
2023/11/07 00:16:39;;;;;;;1.20;1.20;;;7.50;99.90;;;;;;4966437;28;20278;-82
2023/11/07 00:19:07;;;;;;;0.77;0.77;;;7.50;99.90;;;;;;4983796;28;20215;-86
2023/11/07 00:21:35;;;;;;;4.10;1.20;;;7.40;99.90;;;;;;4981871;28;20215;-83
2023/11/07 00:24:04;;;;;;;0.80;0.80;;;7.50;99.90;;;;;;4982961;28;20381;-83
2023/11/07 00:26:34;;;;;;;0.52;0.52;;;7.50;99.90;;;;;;4981836;28;20226;-82
2023/11/07 00:29:01;;;;;;;0.90;0.90;;;7.60;99.90;;;;;;4981854;28;20220;-81
2023/11/07 00:31:34;;;;;;;0.50;0.50;;;7.70;99.90;;;;;;4979766;28;20278;-83
2023/11/07 00:34:01;;;;;;;0.90;0.90;;;7.80;99.90;;;;;;4981985;28;20277;-82
2023/11/07 00:36:32;;;;;;;0.73;0.73;;;7.80;99.90;;;;;;4980747;28;20583;-81
2023/11/07 00:39:01;;;;;;;0.60;0.60;;;8.00;99.90;;;;;;4981655;28;20551;-84
2023/11/07 00:41:28;;;;;;;1.20;1.02;;;8.00;99.90;;;;;;4987466;28;20218;-79
2023/11/07 00:43:55;;;;;;;1.55;1.45;;;8.10;99.90;;;;;;4980491;28;20234;-80
2023/11/07 00:46:23;;;;;;;0.60;0.60;;;8.20;99.90;;;;;;4980862;28;20215;-81
2023/11/07 00:48:49;;;;;;;0.85;0.85;;;8.40;99.90;;;;;;4981234;28;20282;-81
2023/11/07 00:51:16;;;;;;;1.67;1.58;;;8.30;99.90;;;;;;4979657;28;20274;-81
2023/11/07 00:53:44;;;;;;;0.50;0.50;;;8.30;99.90;;;;;;4979066;28;20582;-80
2023/11/07 00:56:12;;;;;;;0.82;0.82;;;8.20;99.90;;;;;;4980243;28;20222;-80
2023/11/07 00:58:38;;;;;;;0.60;0.60;;;8.20;99.90;;;;;;4977709;28;20237;-80
2023/11/07 01:01:06;;;;;;;0.70;0.70;;;8.20;99.90;;;;;;4979834;28;20306;-82
2023/11/07 01:03:33;;;;;;;0.60;0.60;;;8.20;99.90;;;;;;4980489;28;20233;-80
2023/11/07 01:06:01;;;;;;;0.70;0.70;;;8.10;99.90;;;;;;4976541;28;20275;-81
2023/11/07 01:08:28;;;;;;;0.98;0.98;;;8.10;99.90;;;;;;4981647;28;20266;-81
2023/11/07 01:10:55;;;;;;;0.50;0.50;;;8.20;99.90;;;;;;4980210;28;20215;-80
2023/11/07 01:13:22;;;;;;;0.60;0.60;;;8.20;99.90;;;;;;4968506;28;20231;-83
2023/11/07 01:15:49;;;;;;;1.15;1.15;;;8.20;99.90;;;;;;4979276;28;20266;-81
2023/11/07 01:18:17;;;;;;;0.65;0.65;;;8.30;99.90;;;;;;4981793;28;20234;-80
2023/11/07 01:20:45;;;;;;;0.93;0.93;;;8.40;99.90;;;;;;4981649;28;20278;-81
2023/11/07 01:23:13;;;;;;;0.50;0.50;;;8.50;99.90;;;;;;4982001;28;20243;-80
2023/11/07 01:25:45;;;;;;;0.50;0.50;;;8.50;99.90;;;;;;4979026;28;20212;-82
2023/11/07 01:28:13;;;;;;;1.73;1.65;;;8.70;99.90;;;;;;4979855;28;20291;-81
2023/11/07 01:30:40;;;;;;;0.50;0.50;;;8.80;99.90;;;;;;4979002;28;20210;-81
2023/11/07 01:33:07;;;;;;;1.17;1.17;;;8.80;99.90;;;;;;4980414;28;20219;-83
2023/11/07 01:35:34;;;;;;;1.83;1.73;;;8.80;99.90;;;;;;4980308;28;20210;-80
2023/11/07 01:38:02;;;;;;;0.50;0.50;;;8.70;99.90;;;;;;4978974;28;20246;-80
2023/11/07 01:40:33;;;;;;;0.60;0.60;;;8.60;99.90;;;;;;4980781;28;20214;-81
2023/11/07 01:43:14;;;;;;;0.80;0.80;;;8.60;99.90;;;;;;4981921;28;20305;-82
2023/11/07 01:45:41;;;;;;;0.80;0.80;;;8.50;99.90;;;;;;4979925;28;20203;-81
2023/11/07 01:48:12;;;;;;;0.50;0.50;;;8.70;99.90;;;;;;4977576;28;20242;-81
2023/11/07 01:50:40;;;;;;;0.63;0.63;;;8.90;99.90;;;;;;4987268;28;20230;-81
2023/11/07 01:53:09;;;;;;;0.60;0.60;;;8.90;99.90;;;;;;4997545;28;20194;-82
2023/11/07 01:55:40;;;;;;;1.25;1.25;;;9.00;99.90;;;;;;4997471;28;20210;-84
2023/11/07 01:58:09;;;;;;;9.77;3.08;;;8.90;99.90;;;;;;4997967;28;20195;-82
2023/11/07 02:00:39;;;;;;;0.60;0.60;;;9.10;99.90;;;;;;4997247;28;20214;-82
2023/11/07 02:03:07;;;;;;;2.70;2.50;;;8.90;99.90;;;;;;4997276;28;20231;-81
2023/11/07 02:05:34;;;;;;;0.50;0.50;;;8.70;99.90;;;;;;4996054;28;20230;-82
2023/11/07 02:08:05;;;;;;;1.30;1.23;;;8.80;99.90;;;;;;4997363;28;20222;-79
2023/11/07 02:10:32;;;;;;;1.10;1.10;;;8.90;99.90;;;;;;4988015;28;20199;-80
2023/11/07 02:12:59;;;;;;;1.00;1.00;;;8.90;99.90;;;;;;4991095;28;20298;-83
2023/11/07 02:15:27;;;;;;;0.50;0.50;;;9.00;99.90;;;;;;4987094;28;20270;-84
2023/11/07 02:17:55;;;;;;;1.50;1.20;;;9.10;99.90;;;;;;4985225;28;20246;-83
2023/11/07 02:20:28;;;;;;;0.70;0.70;;;9.00;99.90;;;;;;4987464;28;20271;-83
2023/11/07 02:23:27;;;;;;;0.50;0.50;;;9.10;99.90;;;;;;4984776;28;20227;-80
2023/11/07 02:25:55;;;;;;;0.50;0.50;;;9.10;99.90;;;;;;4974973;28;20214;-81
2023/11/07 02:28:25;;;;;;;0.50;0.50;;;9.10;99.90;;;;;;4979248;28;20286;-82
2023/11/07 02:30:53;;;;;;;0.60;0.60;;;9.10;99.90;;;;;;4973743;28;20277;-83
2023/11/07 02:33:21;;;;;;;0.50;0.50;;;9.10;99.90;;;;;;4978696;28;20269;-84
2023/11/07 02:35:50;;;;;;;0.50;0.50;;;9.10;99.90;;;;;;4972609;28;20241;-87
2023/11/07 02:38:20;;;;;;;1.20;1.20;;;9.20;99.90;;;;;;4980091;28;20215;-82
2023/11/07 02:40:49;;;;;;;0.63;0.63;;;9.30;99.90;;;;;;4979855;28;20279;-83
2023/11/07 02:43:17;;;;;;;0.70;0.70;;;9.40;99.90;;;;;;4980385;28;20483;-86
2023/11/07 02:45:44;;;;;;;1.33;1.30;;;9.20;99.90;;;;;;4980530;28;20278;-80
2023/11/07 02:48:12;;;;;;;1.23;1.23;;;9.30;99.90;;;;;;4980302;28;20491;-82
2023/11/07 02:50:41;;;;;;;0.60;0.60;;;9.30;99.90;;;;;;4983348;28;20242;-83
2023/11/07 02:53:11;;;;;;;0.70;0.70;;;9.30;99.90;;;;;;4982602;28;20214;-85
2023/11/07 02:55:39;;;;;;;0.50;0.50;;;9.30;99.90;;;;;;4966568;28;20233;-82
2023/11/07 02:58:06;;;;;;;0.80;0.80;;;9.30;99.90;;;;;;4982782;28;20211;-82
2023/11/07 03:00:34;;;;;;;0.93;0.93;;;9.30;99.90;;;;;;4983353;28;20278;-82
2023/11/07 03:03:03;;;;;;;0.50;0.50;;;9.30;99.90;;;;;;4983205;28;20230;-80
2023/11/07 03:05:30;;;;;;;1.15;1.05;;;9.30;99.90;;;;;;4981578;28;20206;-80
2023/11/07 03:07:58;;;;;;;0.70;0.70;;;9.30;99.90;;;;;;4980930;28;20499;-81
2023/11/07 03:10:26;;;;;;;0.75;0.75;;;9.30;99.90;;;;;;4982217;28;20215;-81
2023/11/07 03:12:55;;;;;;;0.50;0.50;;;9.20;99.90;;;;;;4981963;28;20242;-80
2023/11/07 03:15:22;;;;;;;0.52;0.52;;;9.20;99.90;;;;;;4982544;28;20270;-83
2023/11/07 03:17:51;;;;;;;1.02;1.02;;;9.20;99.90;;;;;;4975141;28;20498;-80
2023/11/07 03:20:18;;;;;;;0.50;0.50;;;9.20;99.90;;;;;;4982237;28;20258;-81
2023/11/07 03:22:45;;;;;;;0.50;0.50;;;9.20;99.90;;;;;;4979468;28;20319;-82
2023/11/07 03:25:12;;;;;;;0.50;0.50;;;9.10;99.90;;;;;;4985230;28;20290;-86
2023/11/07 03:27:39;;;;;;;0.50;0.50;;;9.00;99.90;;;;;;4987932;28;20226;-82
2023/11/07 03:30:08;;;;;;;0.50;0.50;;;8.90;99.90;;;;;;4989045;28;20241;-84
2023/11/07 03:32:37;;;;;;;0.95;0.95;;;8.80;99.90;;;;;;4989431;28;20205;-83
2023/11/07 03:35:04;;;;;;;0.50;0.50;;;8.70;99.90;;;;;;4986402;28;20194;-81
2023/11/07 03:37:33;;;;;;;0.63;0.63;;;8.60;99.90;;;;;;4985763;28;20229;-80
2023/11/07 03:40:00;;;;;;;1.08;1.08;;;8.50;99.90;;;;;;4983625;28;20282;-80
2023/11/07 03:42:42;;;;;;;0.40;0.40;;;8.40;99.90;;;;;;4982284;28;20237;-83
2023/11/07 03:45:09;;;;;;;0.50;0.50;;;8.40;99.90;;;;;;4983653;28;20277;-82
2023/11/07 03:47:37;;;;;;;0.50;0.50;;;8.40;99.90;;;;;;4982526;28;20507;-84
2023/11/07 03:50:07;;;;;;;0.60;0.60;;;8.20;99.90;;;;;;4981109;28;20199;-81
2023/11/07 03:52:33;;;;;;;0.50;0.50;;;8.10;99.90;;;;;;4981605;28;20227;-82
2023/11/07 03:55:03;;;;;;;0.50;0.50;;;8.00;99.90;;;;;;4983486;28;20205;-81
2023/11/07 03:57:32;;;;;;;0.50;0.50;;;8.00;99.90;;;;;;4981719;28;20258;-82
2023/11/07 04:00:00;;;;;;;0.50;0.50;;;7.90;99.90;;;;;;4982354;28;20207;-83
2023/11/07 04:02:28;;;;;;;0.50;0.50;;;7.90;99.90;;;;;;4981314;28;20445;-80
2023/11/07 04:04:56;;;;;;;0.50;0.50;;;7.80;99.90;;;;;;4981828;28;20292;-80
2023/11/07 04:07:26;;;;;;;0.50;0.50;;;7.70;99.90;;;;;;4980955;28;20211;-82
2023/11/07 04:09:56;;;;;;;0.40;0.40;;;7.70;99.90;;;;;;4975788;28;20283;-82
2023/11/07 04:12:24;;;;;;;0.50;0.50;;;7.60;99.90;;;;;;4982911;28;20221;-83
2023/11/07 04:14:54;;;;;;;1.30;0.95;;;7.50;99.90;;;;;;4981598;28;20203;-79
2023/11/07 04:17:24;;;;;;;0.50;0.50;;;7.40;99.90;;;;;;4981376;28;20625;-81
2023/11/07 04:19:54;;;;;;;0.50;0.50;;;7.40;99.90;;;;;;4974487;28;20227;-81
2023/11/07 04:22:22;;;;;;;0.50;0.50;;;7.40;99.90;;;;;;4982483;28;20293;-83
2023/11/07 04:24:52;;;;;;;0.65;0.65;;;7.40;99.90;;;;;;4981670;28;20230;-84
2023/11/07 04:27:22;;;;;;;0.40;0.40;;;7.30;99.90;;;;;;4974791;28;20214;-82
2023/11/07 04:29:50;;;;;;;0.50;0.50;;;7.30;99.90;;;;;;4972872;28;20239;-81
2023/11/07 04:32:20;;;;;;;1.17;1.15;;;7.20;99.90;;;;;;4981568;28;20236;-82
2023/11/07 04:34:50;;;;;;;0.50;0.50;;;7.20;99.90;;;;;;4980874;28;20211;-83
2023/11/07 04:37:26;;;;;;;0.80;0.80;;;7.20;99.90;;;;;;4982081;28;20214;-85
2023/11/07 04:40:06;;;;;;;2.50;2.33;;;7.20;99.90;;;;;;4978157;28;20195;-81
2023/11/07 04:42:34;;;;;;;0.60;0.60;;;7.20;99.90;;;;;;4981276;28;20211;-82
2023/11/07 04:45:02;;;;;;;0.75;0.75;;;7.20;99.90;;;;;;4984549;28;20258;-83
2023/11/07 04:47:29;;;;;;;1.15;1.13;;;7.10;99.90;;;;;;4979694;28;20210;-78
2023/11/07 04:49:59;;;;;;;0.70;0.70;;;7.10;99.90;;;;;;4979525;28;20214;-80
2023/11/07 04:52:26;;;;;;;0.70;0.70;;;7.00;99.90;;;;;;4979649;28;20551;-81
2023/11/07 04:54:53;;;;;;;0.65;0.65;;;7.00;99.90;;;;;;4977854;28;20305;-80
2023/11/07 04:57:20;;;;;;;0.63;0.63;;;7.00;99.90;;;;;;4978902;28;20254;-78
2023/11/07 04:59:48;;;;;;;0.50;0.50;;;6.90;99.90;;;;;;4978875;28;20221;-80
2023/11/07 05:02:15;;;;;;;0.40;0.40;;;6.80;99.90;;;;;;4979318;28;20211;-78
2023/11/07 05:04:45;;;;;;;0.40;0.40;;;6.70;99.90;;;;;;4977890;28;20238;-79
2023/11/07 05:07:13;;;;;;;0.75;0.75;;;6.70;99.90;;;;;;4980638;28;20199;-82
2023/11/07 05:09:40;;;;;;;0.45;0.45;;;6.90;99.90;;;;;;4981708;28;20211;-81
2023/11/07 05:12:11;;;;;;;0.60;0.60;;;6.80;99.90;;;;;;4979432;28;20245;-82
2023/11/07 05:14:41;;;;;;;0.50;0.50;;;6.70;99.90;;;;;;4980091;28;20266;-81
2023/11/07 05:17:09;;;;;;;0.50;0.50;;;6.70;99.90;;;;;;4980961;28;20365;-82
2023/11/07 05:19:41;;;;;;;0.52;0.52;;;6.90;99.90;;;;;;4980786;28;20202;-82
2023/11/07 05:22:08;;;;;;;0.70;0.70;;;6.80;99.90;;;;;;4981138;28;20546;-82
2023/11/07 05:24:37;;;;;;;0.40;0.40;;;6.70;99.90;;;;;;4981225;28;20258;-81
2023/11/07 05:27:04;;;;;;;0.77;0.77;;;6.70;99.90;;;;;;4981530;28;20219;-84
2023/11/07 05:29:32;;;;;;;7.22;1.90;;;6.60;99.90;;;;;;4980088;28;20541;-82
2023/11/07 05:31:59;;;;;;;0.50;0.50;;;6.40;99.90;;;;;;4979463;28;20241;-82
2023/11/07 05:34:26;;;;;;;0.43;0.43;;;6.40;99.90;;;;;;4980146;28;20251;-81
2023/11/07 05:36:55;;;;;;;2.58;1.40;;;6.30;99.90;;;;;;4975615;28;20219;-82
2023/11/07 05:39:27;;;;;;;2.65;2.45;;;6.30;99.90;;;;;;4981224;28;20251;-82
2023/11/07 05:41:58;;;;;;;1.02;1.02;;;6.50;99.90;;;;;;4955685;28;20215;-80
2023/11/07 05:44:26;;;;;;;0.40;0.40;;;6.40;99.90;;;;;;4978674;28;20218;-80
2023/11/07 05:46:54;;;;;;;0.47;0.47;;;6.30;99.90;;;;;;4981077;28;20207;-81
2023/11/07 05:49:23;;;;;;;1.02;1.02;;;6.20;99.90;;;;;;4981000;28;20503;-80
2023/11/07 05:51:52;;;;;;;1.02;1.02;;;6.20;99.90;;;;;;4982546;28;20491;-80
2023/11/07 05:54:19;;;;;;;1.15;1.15;;;6.20;99.90;;;;;;4982762;28;20211;-80
2023/11/07 05:56:50;;;;;;;0.50;0.50;;;6.20;99.90;;;;;;4982150;28;20230;-83
2023/11/07 05:59:19;;;;;;;0.60;0.60;;;6.20;99.90;;;;;;4987531;28;20245;-84
2023/11/07 06:01:47;;;;;;;0.50;0.50;;;6.20;99.90;;;;;;4981607;28;20238;-84
2023/11/07 06:04:36;;;;;;;0.80;0.80;;;6.20;99.90;;;;;;4982918;28;20419;-84
2023/11/07 06:07:06;;;;;;;0.70;0.70;;;6.30;99.90;;;;;;4977591;28;20210;-84
2023/11/07 06:09:35;;;;;;;0.98;0.70;;;6.30;99.90;;;;;;4987468;28;20242;-83
2023/11/07 06:12:06;;;;;;;0.50;0.50;;;6.30;99.90;;;;;;4987263;28;20206;-81
2023/11/07 06:14:36;;;;;;;0.40;0.40;;;6.50;99.90;;;;;;4980191;28;20214;-84
2023/11/07 06:17:03;;;;;;;0.68;0.68;;;6.60;99.90;;;;;;4982680;28;20207;-83
2023/11/07 06:19:30;;;;;;;1.92;1.63;;;6.70;99.90;;;;;;4981091;28;20209;-82
2023/11/07 06:21:57;;;;;;;0.50;0.50;;;6.80;99.90;;;;;;4984989;28;20395;-80
2023/11/07 06:24:24;;;;;;;0.95;0.95;;;7.00;99.90;;;;;;4987140;28;20285;-80
2023/11/07 06:26:52;;;;;;;1.27;0.95;;;7.00;99.90;;;;;;4992108;28;20226;-82
2023/11/07 06:29:20;;;;;;;0.55;0.55;;;7.00;99.90;;;;;;5001530;28;20234;-83
2023/11/07 06:31:47;;;;;;;0.88;0.88;;;7.00;99.90;;;;;;4992864;28;20219;-81
2023/11/07 06:34:14;;;;;;;0.60;0.60;;;6.90;99.90;;;;;;5000084;28;20246;-87
2023/11/07 06:36:41;;;;;;;0.40;0.40;;;6.80;99.90;;;;;;4993246;28;20206;-83
2023/11/07 06:39:10;;;;;;;0.63;0.63;;;6.80;99.90;;;;;;4981770;28;20735;-82
2023/11/07 06:41:38;;;;;;;5.47;2.17;;;7.00;99.90;;;;;;4982702;28;20250;-82
2023/11/07 06:44:06;;;;;;;0.95;0.95;;;7.10;99.90;;;;;;4983286;28;20516;-82
2023/11/07 06:46:33;;;;;;;0.50;0.50;;;7.20;99.90;;;;;;4988577;28;20265;-82
2023/11/07 06:49:04;;;;;;;0.50;0.50;;;7.20;99.90;;;;;;4983090;28;20203;-81
2023/11/07 06:51:32;;;;;;;0.50;0.50;;;7.20;99.90;;;;;;4982826;28;20258;-80
2023/11/07 06:54:00;;;;;;;0.70;0.70;;;7.20;99.90;;;;;;4975781;28;20217;-83
2023/11/07 06:56:27;;;;;;;1.17;1.17;;;7.20;99.90;;;;;;4983444;28;20266;-82
2023/11/07 06:58:54;;;;;;;0.60;0.60;;;7.30;99.90;;;;;;4976171;28;20207;-83
2023/11/07 07:01:25;;;;;;;0.63;0.63;;;7.40;99.90;;;;;;4978304;28;20549;-82
2023/11/07 07:03:55;;;;;;;5.40;1.00;;;7.60;99.90;;;;;;4984216;28;20250;-83
2023/11/07 07:06:23;;;;;;;1.05;1.05;;;8.00;99.90;;;;;;4982709;28;20214;-83
2023/11/07 07:08:52;;;;;;;0.70;0.70;;;8.30;99.90;;;;;;4984791;28;20511;-82
2023/11/07 07:11:20;;;;;;;0.55;0.55;;;9.10;99.90;;;;;;4983233;28;20363;-81
2023/11/07 07:13:47;;;;;;;0.60;0.60;;;9.50;99.90;;;;;;4986168;28;20219;-82
2023/11/07 07:16:16;;;;;;;0.70;0.70;;;9.40;99.90;;;;;;4983639;28;20207;-82
2023/11/07 07:18:44;;;;;;;3.08;2.88;;;9.30;99.90;;;;;;4981706;28;20603;-83
2023/11/07 07:21:13;;;;;;;0.82;0.82;;;9.20;99.90;;;;;;4976885;28;20218;-82
2023/11/07 07:23:46;;;;;;;0.60;0.60;;;10.30;99.90;;;;;;4981335;28;20203;-82
2023/11/07 07:26:14;;;;;;;0.77;0.77;;;13.10;99.90;;;;;;4982900;28;20207;-84
2023/11/07 07:28:41;;;;;;;0.60;0.60;;;14.90;99.90;;;;;;4983075;28;20281;-82
2023/11/07 07:31:10;;;;;;;0.90;0.90;;;16.30;99.90;;;;;;4982997;28;20527;-81
2023/11/07 07:33:38;;;;;;;0.60;0.60;;;16.20;99.90;;;;;;4983207;28;20540;-83
2023/11/07 07:36:11;;;;;;;0.70;0.70;;;16.50;99.90;;;;;;4984260;28;20221;-82
2023/11/07 07:38:41;;;;;;;1.43;1.37;;;15.70;99.90;;;;;;4984937;28;20411;-83
2023/11/07 07:41:10;;;;;;;0.70;0.70;;;16.10;99.90;;;;;;4983163;28;20458;-83
2023/11/07 07:43:38;;;;;;;0.80;0.80;;;16.60;99.90;;;;;;4978806;28;20484;-82
2023/11/07 07:46:07;;;;;;;1.43;1.40;;;16.70;99.90;;;;;;4982831;28;20472;-82
2023/11/07 07:48:34;;;;;;;0.60;0.60;;;16.50;99.90;;;;;;4980705;28;20519;-82
2023/11/07 07:51:06;;;;;;;0.73;0.73;;;12.60;99.90;;;;;;4982335;28;20526;-80
2023/11/07 07:53:36;;;;;;;0.73;0.73;;;11.20;99.90;;;;;;4982480;28;20458;-83
2023/11/07 07:56:13;;;;;;;3.03;1.07;;;10.70;99.90;;;;;;4982696;28;20791;-84
2023/11/07 07:58:42;;;;;;;0.70;0.70;;;10.50;99.90;;;;;;4981862;28;20455;-83
2023/11/07 08:01:09;;;;;;;2.00;1.40;;;10.30;99.90;;;;;;4980360;28;20457;-84
2023/11/07 08:03:38;;;;;;;0.70;0.70;;;10.30;99.90;;;;;;4988898;28;20516;-82
2023/11/07 08:06:06;;;;;;;0.65;0.65;;;10.20;99.90;;;;;;4982941;28;20218;-83
2023/11/07 08:08:33;;;;;;;0.60;0.60;;;10.30;99.90;;;;;;4981153;28;20487;-83
2023/11/07 08:11:01;;;;;;;0.60;0.60;;;10.20;99.90;;;;;;4985677;28;20211;-84
2023/11/07 08:13:28;;;;;;;0.60;0.60;;;10.40;99.90;;;;;;4990584;28;20241;-84
2023/11/07 08:15:55;;;;;;;0.60;0.60;;;10.50;99.90;;;;;;4988840;28;20202;-81
2023/11/07 08:18:23;;;;;;;0.80;0.80;;;12.70;99.90;;;;;;4988704;28;20452;-84
2023/11/07 08:20:50;;;;;;;1.50;1.42;;;15.50;99.90;;;;;;4981816;28;20238;-85
2023/11/07 08:23:18;;;;;;;0.80;0.80;;;16.60;99.90;;;;;;4983027;28;20411;-83
2023/11/07 08:25:45;;;;;;;0.60;0.60;;;17.10;99.90;;;;;;4982225;28;20482;-84
2023/11/07 08:28:12;;;;;;;4.63;2.50;;;16.80;99.90;;;;;;4981099;28;20420;-82
2023/11/07 08:30:43;;;;;;;0.70;0.70;;;16.40;99.90;;;;;;4980267;28;20507;-84
2023/11/07 08:33:12;;;;;;;0.70;0.70;;;16.80;99.90;;;;;;4981965;28;20448;-84
2023/11/07 08:35:40;;;;;;;0.70;0.70;;;14.60;99.90;;;;;;4980836;28;20439;-84
2023/11/07 08:38:07;;;;;;;0.70;0.70;;;13.50;99.90;;;;;;4981220;28;20757;-87
2023/11/07 08:40:35;;;;;;;0.70;0.70;;;13.10;99.90;;;;;;4978846;28;22506;-85
2023/11/07 08:43:03;;;;;;;1.33;1.33;;;12.60;99.90;;;;;;4990731;28;20456;-86
2023/11/07 08:45:32;;;;;;;0.60;0.60;;;12.60;99.90;;;;;;4978477;28;20523;-86
2023/11/07 08:48:00;;;;;;;0.70;0.70;;;12.70;99.90;;;;;;4981773;28;20452;-85
2023/11/07 08:50:27;;;;;;;0.70;0.70;;;12.50;99.90;;;;;;4983089;28;20455;-84
2023/11/07 08:52:57;;;;;;;0.60;0.60;;;12.50;99.90;;;;;;4981754;28;20451;-82
2023/11/07 08:55:25;;;;;;;0.70;0.70;;;12.60;99.90;;;;;;4980276;28;20823;-81
2023/11/07 08:57:56;;;;;;;0.60;0.60;;;12.70;99.90;;;;;;4982468;28;20439;-84
2023/11/07 09:00:26;;;;;;;0.60;0.60;;;12.50;99.90;;;;;;4986767;28;20477;-86
2023/11/07 09:02:54;;;;;;;0.60;0.60;;;12.60;99.90;;;;;;4988624;28;20228;-83
2023/11/07 09:05:22;;;;;;;1.07;1.07;;;12.40;99.90;;;;;;4988703;28;20503;-83
2023/11/07 09:07:50;;;;;;;0.60;0.60;;;12.30;99.90;;;;;;4987710;28;20595;-86
2023/11/07 09:10:19;;;;;;;0.60;0.60;;;12.30;99.90;;;;;;4983151;28;20319;-82
2023/11/07 09:12:47;;;;;;;0.70;0.70;;;12.30;99.90;;;;;;4982628;28;20546;-86
2023/11/07 09:15:14;;;;;;;0.60;0.60;;;12.20;99.90;;;;;;4982492;28;20207;-84
2023/11/07 09:17:42;;;;;;;0.60;0.60;;;12.30;99.90;;;;;;4983152;28;20215;-87
2023/11/07 09:20:13;;;;;;;0.60;0.60;;;12.20;99.90;;;;;;4984364;28;20203;-84
2023/11/07 09:22:43;;;;;;;0.70;0.70;;;12.30;99.90;;;;;;4981768;28;20241;-84
2023/11/07 09:25:14;;;;;;;0.60;0.60;;;12.40;99.90;;;;;;4975245;28;20293;-83
2023/11/07 09:27:41;;;;;;;1.00;1.00;;;12.50;99.90;;;;;;4978886;28;20199;-85
2023/11/07 09:30:09;;;;;;;0.60;0.60;;;12.40;99.90;;;;;;4981078;28;20242;-83
2023/11/07 09:32:39;;;;;;;0.60;0.60;;;12.40;99.90;;;;;;4975921;28;20199;-84
2023/11/07 09:35:06;;;;;;;0.60;0.60;;;12.50;99.90;;;;;;4975601;28;20304;-87
2023/11/07 09:37:39;;;;;;;1.25;1.20;;;12.70;99.90;;;;;;4992334;28;20210;-85
2023/11/07 09:40:17;;;;;;;0.70;0.70;;;12.80;99.90;;;;;;4994727;28;20303;-86
2023/11/07 09:42:57;;;;;;;0.60;0.60;;;12.90;99.90;;;;;;4989362;28;20238;-85
2023/11/07 09:45:24;;;;;;;0.60;0.60;;;13.00;99.90;;;;;;4981765;28;20278;-87
2023/11/07 09:47:51;;;;;;;0.70;0.70;;;13.10;99.90;;;;;;4981585;28;20534;-87
2023/11/07 09:50:21;;;;;;;0.80;0.80;;;13.10;99.90;;;;;;4982088;28;20202;-85
2023/11/07 09:52:54;;;;;;;4.47;1.65;;;13.20;99.90;;;;;;4980932;28;20210;-85
2023/11/07 09:55:26;;;;;;;0.70;0.70;;;13.40;99.90;;;;;;4980860;28;20234;-88
2023/11/07 09:58:07;;;;;;;0.70;0.70;;;13.30;99.90;;;;;;4986435;28;20597;-86
2023/11/07 10:00:44;;;;;;;0.70;0.70;;;13.40;99.90;;;;;;4986391;28;20688;-84
2023/11/07 10:03:12;;;;;;;0.80;0.80;;;13.40;99.90;;;;;;4981690;28;20221;-84
2023/11/07 10:05:40;;;;;;;0.70;0.70;;;13.40;99.90;;;;;;4982279;28;20680;-85
2023/11/07 10:08:07;;;;;;;0.60;0.60;;;13.30;99.90;;;;;;4983647;28;20445;-82
2023/11/07 10:10:34;;;;;;;0.70;0.70;;;13.30;99.90;;;;;;4991540;28;20419;-85
2023/11/07 10:13:10;;;;;;;0.75;0.75;;;13.10;99.90;;;;;;4992433;28;20207;-83
2023/11/07 10:15:39;;;;;;;0.70;0.70;;;13.20;99.90;;;;;;4983911;28;20440;-87
2023/11/07 10:18:10;;;;;;;0.60;0.60;;;13.40;99.90;;;;;;4987105;28;20218;-83
2023/11/07 10:20:50;;;;;;;0.60;0.60;;;13.30;99.90;;;;;;4982211;28;20215;-84
2023/11/07 10:23:18;;;;;;;0.70;0.70;;;13.10;99.90;;;;;;4976122;28;20468;-85
2023/11/07 10:25:49;;;;;;;0.70;0.70;;;12.90;99.90;;;;;;4983000;28;20465;-87
2023/11/07 10:28:19;;;;;;;1.03;1.03;;;12.70;99.90;;;;;;4984377;28;20281;-84
2023/11/07 10:30:48;;;;;;;0.60;0.60;;;12.50;99.90;;;;;;4983455;28;20441;-86
2023/11/07 10:33:32;;;;;;;0.77;0.77;;;12.70;99.90;;;;;;4980925;28;20210;-89
2023/11/07 10:36:01;;;;;;;0.60;0.60;;;12.40;99.90;;;;;;4980478;28;20230;-85
2023/11/07 10:38:30;;;;;;;1.38;1.33;;;12.50;99.90;;;;;;4983294;28;20207;-86
2023/11/07 10:40:57;;;;;;;0.60;0.60;;;12.50;99.90;;;;;;4980616;28;20466;-85
2023/11/07 10:43:38;;;;;;;0.60;0.60;;;12.60;99.90;;;;;;4982568;28;20284;-86
2023/11/07 10:46:11;;;;;;;0.80;0.80;;;12.70;99.90;;;;;;4983604;28;20586;-81
2023/11/07 10:48:40;;;;;;;0.70;0.70;;;12.70;99.90;;;;;;4981867;28;20204;-88
2023/11/07 10:51:12;;;;;;;0.68;0.68;;;12.70;99.90;;;;;;4972606;28;20206;-85
2023/11/07 10:53:42;;;;;;;0.70;0.70;;;12.70;99.90;;;;;;4979490;28;20474;-89
2023/11/07 10:56:14;;;;;;;1.05;1.05;;;12.70;99.90;;;;;;4980551;28;20231;-83
2023/11/07 10:58:57;;;;;;;1.63;1.55;;;12.70;99.90;;;;;;4986188;28;20231;-82
2023/11/07 11:01:26;;;;;;;0.60;0.60;;;12.60;99.90;;;;;;4986431;28;20190;-86
2023/11/07 11:04:00;;;;;;;0.70;0.70;;;12.70;99.90;;;;;;4992785;28;20203;-83
2023/11/07 11:06:30;;;;;;;0.85;0.85;;;12.80;99.90;;;;;;4990984;28;20258;-83
2023/11/07 11:09:01;;;;;;;0.60;0.60;;;12.80;99.90;;;;;;4973180;28;20211;-84
2023/11/07 11:11:33;;;;;;;0.90;0.90;;;12.80;99.90;;;;;;4983006;28;20246;-86
2023/11/07 11:14:03;;;;;;;0.70;0.70;;;12.80;99.90;;;;;;4983217;28;20222;-84
2023/11/07 11:16:32;;;;;;;0.98;0.98;;;12.80;99.90;;;;;;4986149;28;20218;-84
2023/11/07 11:19:13;;;;;;;0.70;0.70;;;12.80;99.90;;;;;;4988589;28;20213;-82
2023/11/07 11:21:57;;;;;;;0.60;0.60;;;12.80;99.90;;;;;;4987018;28;20199;-85
2023/11/07 11:24:37;;;;;;;1.30;1.30;;;12.80;99.90;;;;;;4981149;28;20204;-86
2023/11/07 11:27:15;;;;;;;0.63;0.63;;;12.80;99.90;;;;;;4982118;28;20221;-85
2023/11/07 11:29:51;;;;;;;0.70;0.70;;;12.80;99.90;;;;;;4979368;28;20219;-85
2023/11/07 11:32:26;;;;;;;0.70;0.70;;;12.80;99.90;;;;;;4977475;28;20202;-84
2023/11/07 11:35:27;;;;;;;0.60;0.60;;;12.80;99.90;;;;;;4982017;28;20298;-86
2023/11/07 11:38:21;;;;;;;0.70;0.70;;;12.80;99.90;;;;;;4982416;28;20566;-82
2023/11/07 11:40:53;;;;;;;0.70;0.70;;;12.80;99.90;;;;;;4982278;28;20238;-83
2023/11/07 11:43:33;;;;;;;0.70;0.70;;;12.80;99.90;;;;;;4986265;28;20199;-85
2023/11/07 11:46:15;;;;;;;0.70;0.70;;;12.80;99.90;;;;;;4983900;28;20590;-83
2023/11/07 11:48:52;;;;;;;0.70;0.70;;;12.90;99.90;;;;;;4983723;28;20217;-86
2023/11/07 11:51:38;;;;;;;0.70;0.70;;;12.90;99.90;;;;;;4983493;28;20241;-85
2023/11/07 11:54:10;;;;;;;1.30;1.30;;;13.00;99.90;;;;;;4982587;28;20249;-87
2023/11/07 11:56:50;;;;;;;0.70;0.70;;;12.90;99.90;;;;;;4983646;28;20195;-84
2023/11/07 11:59:25;;;;;;;0.80;0.80;;;13.00;99.90;;;;;;4976779;28;20207;-86
2023/11/07 12:01:54;;;;;;;0.60;0.60;;;13.10;99.90;;;;;;4981888;28;20217;-87
2023/11/07 12:04:32;;;;;;;1.23;1.23;;;13.10;99.90;;;;;;4978516;28;20298;-87
2023/11/07 12:07:14;;;;;;;0.70;0.70;;;13.00;99.90;;;;;;4981457;28;20238;-85
2023/11/07 12:09:51;;;;;;;0.70;0.70;;;12.90;99.90;;;;;;4983176;28;20198;-84
2023/11/07 12:12:19;;;;;;;0.70;0.70;;;12.60;99.90;;;;;;4973065;28;20203;-83
2023/11/07 12:15:02;;;;;;;1.35;1.35;;;12.70;99.90;;;;;;4978759;28;20213;-87
2023/11/07 12:17:46;;;;;;;0.80;0.80;;;12.80;99.90;;;;;;4980998;28;20213;-83
2023/11/07 12:20:15;;;;;;;0.60;0.60;;;13.10;99.90;;;;;;4983048;28;20521;-86
2023/11/07 12:22:47;;;;;;;0.60;0.60;;;13.40;99.90;;;;;;4983295;28;20592;-86
2023/11/07 12:25:19;;;;;;;0.60;0.60;;;13.70;99.90;;;;;;4982443;28;20586;-84
2023/11/07 12:27:56;;;;;;;1.10;1.10;;;13.60;99.90;;;;;;4981806;28;20428;-85
2023/11/07 12:30:23;;;;;;;0.70;0.70;;;13.60;99.90;;;;;;4974737;28;20443;-88
2023/11/07 12:33:21;;;;;;;0.80;0.80;;;13.70;99.90;;;;;;4982711;28;20424;-84
2023/11/07 12:35:55;;;;;;;0.70;0.70;;;13.90;99.90;;;;;;4972452;28;20427;-86
2023/11/07 12:38:24;;;;;;;0.70;0.70;;;13.90;99.90;;;;;;4973000;28;20457;-85
2023/11/07 12:40:51;;;;;;;0.70;0.70;;;13.80;99.90;;;;;;4981985;28;20628;-86
2023/11/07 12:43:18;;;;;;;0.90;0.90;;;13.80;99.90;;;;;;4982127;28;20423;-84
2023/11/07 12:45:46;;;;;;;0.70;0.70;;;13.80;99.90;;;;;;4982362;28;20459;-84
2023/11/07 12:48:24;;;;;;;0.70;0.70;;;13.30;99.90;;;;;;4979481;28;20424;-84
2023/11/07 12:50:51;;;;;;;3.33;3.07;;;13.30;99.90;;;;;;4981243;28;20504;-83
2023/11/07 12:53:19;;;;;;;0.70;0.70;;;13.20;99.90;;;;;;4981246;28;20457;-80
2023/11/07 12:55:54;;;;;;;0.60;0.60;;;13.10;99.90;;;;;;4979807;28;20495;-85
2023/11/07 12:58:29;;;;;;;0.70;0.70;;;13.00;99.90;;;;;;4980162;28;20202;-85
2023/11/07 13:01:07;;;;;;;1.17;1.17;;;12.90;99.90;;;;;;4981582;28;20410;-84
2023/11/07 13:03:37;;;;;;;1.05;1.05;;;12.80;99.90;;;;;;4981496;28;20241;-85
2023/11/07 13:06:09;;;;;;;0.65;0.65;;;13.00;99.90;;;;;;4981291;28;20446;-85
2023/11/07 13:08:44;;;;;;;0.70;0.70;;;12.80;99.90;;;;;;4981369;28;20211;-87